sensor_id;sensor_type;location;lat;lon;timestamp;P1;durP1;ratioP1;P2;durP2;ratioP2
57826;SDS011;43656;57.746;11.780;2022-11-20T00:00:27;1.42;;;0.85;;
57826;SDS011;43656;57.746;11.780;2022-11-20T00:02:52;1.98;;;0.95;;
57826;SDS011;43656;57.746;11.780;2022-11-20T00:05:19;1.17;;;1.05;;
57826;SDS011;43656;57.746;11.780;2022-11-20T00:07:45;1.60;;;0.82;;
57826;SDS011;43656;57.746;11.780;2022-11-20T00:10:11;2.60;;;1.00;;
57826;SDS011;43656;57.746;11.780;2022-11-20T00:12:36;1.63;;;1.00;;
57826;SDS011;43656;57.746;11.780;2022-11-20T00:15:02;1.40;;;0.90;;
57826;SDS011;43656;57.746;11.780;2022-11-20T00:17:29;1.88;;;0.88;;
57826;SDS011;43656;57.746;11.780;2022-11-20T00:19:54;1.30;;;0.90;;
57826;SDS011;43656;57.746;11.780;2022-11-20T00:22:20;1.45;;;0.90;;
57826;SDS011;43656;57.746;11.780;2022-11-20T00:24:45;1.63;;;0.90;;
57826;SDS011;43656;57.746;11.780;2022-11-20T00:27:10;1.75;;;1.10;;
57826;SDS011;43656;57.746;11.780;2022-11-20T00:29:36;1.83;;;0.95;;
57826;SDS011;43656;57.746;11.780;2022-11-20T00:32:01;1.30;;;0.80;;
57826;SDS011;43656;57.746;11.780;2022-11-20T00:34:26;1.55;;;1.00;;
57826;SDS011;43656;57.746;11.780;2022-11-20T00:36:52;1.08;;;0.73;;
57826;SDS011;43656;57.746;11.780;2022-11-20T00:39:17;1.25;;;0.80;;
57826;SDS011;43656;57.746;11.780;2022-11-20T00:41:43;1.30;;;0.88;;
57826;SDS011;43656;57.746;11.780;2022-11-20T00:44:08;0.85;;;0.73;;
57826;SDS011;43656;57.746;11.780;2022-11-20T00:46:34;1.33;;;0.85;;
57826;SDS011;43656;57.746;11.780;2022-11-20T00:48:59;1.83;;;0.90;;
57826;SDS011;43656;57.746;11.780;2022-11-20T00:51:25;1.48;;;0.98;;
57826;SDS011;43656;57.746;11.780;2022-11-20T00:53:57;3.85;;;0.95;;
57826;SDS011;43656;57.746;11.780;2022-11-20T00:56:23;1.50;;;1.13;;
57826;SDS011;43656;57.746;11.780;2022-11-20T00:58:49;1.15;;;0.80;;
57826;SDS011;43656;57.746;11.780;2022-11-20T01:01:16;1.88;;;0.80;;
57826;SDS011;43656;57.746;11.780;2022-11-20T01:03:44;1.00;;;0.70;;
57826;SDS011;43656;57.746;11.780;2022-11-20T01:06:15;1.85;;;1.10;;
57826;SDS011;43656;57.746;11.780;2022-11-20T01:08:52;1.60;;;0.85;;
57826;SDS011;43656;57.746;11.780;2022-11-20T01:11:26;1.30;;;0.90;;
57826;SDS011;43656;57.746;11.780;2022-11-20T01:13:53;2.38;;;0.80;;
57826;SDS011;43656;57.746;11.780;2022-11-20T01:16:30;0.95;;;0.80;;
57826;SDS011;43656;57.746;11.780;2022-11-20T01:18:58;2.15;;;1.10;;
57826;SDS011;43656;57.746;11.780;2022-11-20T01:21:28;2.35;;;1.00;;
57826;SDS011;43656;57.746;11.780;2022-11-20T01:23:55;1.98;;;0.95;;
57826;SDS011;43656;57.746;11.780;2022-11-20T01:26:22;1.75;;;1.00;;
57826;SDS011;43656;57.746;11.780;2022-11-20T01:28:50;1.15;;;0.80;;
57826;SDS011;43656;57.746;11.780;2022-11-20T01:31:22;2.78;;;1.20;;
57826;SDS011;43656;57.746;11.780;2022-11-20T01:33:50;1.42;;;0.98;;
57826;SDS011;43656;57.746;11.780;2022-11-20T01:36:17;1.55;;;0.88;;
57826;SDS011;43656;57.746;11.780;2022-11-20T01:38:44;2.03;;;0.95;;
57826;SDS011;43656;57.746;11.780;2022-11-20T01:41:13;1.35;;;0.80;;
57826;SDS011;43656;57.746;11.780;2022-11-20T01:44:00;1.48;;;1.00;;
57826;SDS011;43656;57.746;11.780;2022-11-20T01:46:26;1.60;;;1.10;;
57826;SDS011;43656;57.746;11.780;2022-11-20T01:49:07;2.97;;;0.93;;
57826;SDS011;43656;57.746;11.780;2022-11-20T01:51:45;2.47;;;1.02;;
57826;SDS011;43656;57.746;11.780;2022-11-20T01:54:19;1.63;;;1.10;;
57826;SDS011;43656;57.746;11.780;2022-11-20T01:56:51;3.42;;;1.20;;
57826;SDS011;43656;57.746;11.780;2022-11-20T01:59:19;1.40;;;0.93;;
57826;SDS011;43656;57.746;11.780;2022-11-20T02:01:46;4.72;;;1.20;;
57826;SDS011;43656;57.746;11.780;2022-11-20T02:04:12;2.20;;;1.02;;
57826;SDS011;43656;57.746;11.780;2022-11-20T02:09:07;2.75;;;1.50;;
57826;SDS011;43656;57.746;11.780;2022-11-20T02:11:33;1.77;;;1.17;;
57826;SDS011;43656;57.746;11.780;2022-11-20T02:14:01;2.88;;;1.02;;
57826;SDS011;43656;57.746;11.780;2022-11-20T02:16:36;1.77;;;1.17;;
57826;SDS011;43656;57.746;11.780;2022-11-20T02:19:05;2.10;;;1.13;;
57826;SDS011;43656;57.746;11.780;2022-11-20T02:24:32;2.67;;;1.35;;
57826;SDS011;43656;57.746;11.780;2022-11-20T02:29:38;1.55;;;1.17;;
57826;SDS011;43656;57.746;11.780;2022-11-20T02:32:17;2.10;;;1.30;;
57826;SDS011;43656;57.746;11.780;2022-11-20T02:34:46;1.70;;;1.05;;
57826;SDS011;43656;57.746;11.780;2022-11-20T02:37:11;1.60;;;1.15;;
57826;SDS011;43656;57.746;11.780;2022-11-20T02:39:37;1.50;;;1.02;;
57826;SDS011;43656;57.746;11.780;2022-11-20T02:42:03;2.88;;;1.30;;
57826;SDS011;43656;57.746;11.780;2022-11-20T02:44:28;1.88;;;1.10;;
57826;SDS011;43656;57.746;11.780;2022-11-20T02:46:56;2.53;;;1.20;;
57826;SDS011;43656;57.746;11.780;2022-11-20T02:52:04;1.38;;;1.23;;
57826;SDS011;43656;57.746;11.780;2022-11-20T02:54:30;2.50;;;1.20;;
57826;SDS011;43656;57.746;11.780;2022-11-20T02:56:55;2.00;;;1.40;;
57826;SDS011;43656;57.746;11.780;2022-11-20T02:59:21;2.08;;;1.30;;
57826;SDS011;43656;57.746;11.780;2022-11-20T03:01:46;2.00;;;1.23;;
57826;SDS011;43656;57.746;11.780;2022-11-20T03:04:11;2.22;;;1.45;;
57826;SDS011;43656;57.746;11.780;2022-11-20T03:06:37;2.20;;;1.40;;
57826;SDS011;43656;57.746;11.780;2022-11-20T03:09:02;1.90;;;1.48;;
57826;SDS011;43656;57.746;11.780;2022-11-20T03:11:28;1.60;;;1.30;;
57826;SDS011;43656;57.746;11.780;2022-11-20T03:13:53;2.15;;;1.27;;
57826;SDS011;43656;57.746;11.780;2022-11-20T03:16:19;3.30;;;1.27;;
57826;SDS011;43656;57.746;11.780;2022-11-20T03:18:46;2.05;;;1.40;;
57826;SDS011;43656;57.746;11.780;2022-11-20T03:21:12;2.35;;;1.40;;
57826;SDS011;43656;57.746;11.780;2022-11-20T03:23:39;2.58;;;1.42;;
57826;SDS011;43656;57.746;11.780;2022-11-20T03:28:41;2.33;;;1.50;;
57826;SDS011;43656;57.746;11.780;2022-11-20T03:31:11;1.90;;;1.50;;
57826;SDS011;43656;57.746;11.780;2022-11-20T03:33:39;5.22;;;1.80;;
57826;SDS011;43656;57.746;11.780;2022-11-20T03:36:07;3.00;;;1.40;;
57826;SDS011;43656;57.746;11.780;2022-11-20T03:38:36;2.42;;;1.52;;
57826;SDS011;43656;57.746;11.780;2022-11-20T03:41:02;2.58;;;1.45;;
57826;SDS011;43656;57.746;11.780;2022-11-20T03:43:47;3.30;;;1.75;;
57826;SDS011;43656;57.746;11.780;2022-11-20T03:46:26;3.95;;;1.92;;
57826;SDS011;43656;57.746;11.780;2022-11-20T03:48:52;2.72;;;1.50;;
57826;SDS011;43656;57.746;11.780;2022-11-20T03:51:25;2.40;;;1.60;;
57826;SDS011;43656;57.746;11.780;2022-11-20T03:53:53;2.53;;;1.52;;
57826;SDS011;43656;57.746;11.780;2022-11-20T03:56:22;3.30;;;1.58;;
57826;SDS011;43656;57.746;11.780;2022-11-20T03:58:49;1.73;;;1.50;;
57826;SDS011;43656;57.746;11.780;2022-11-20T04:01:15;2.05;;;1.70;;
57826;SDS011;43656;57.746;11.780;2022-11-20T04:03:42;2.17;;;1.73;;
57826;SDS011;43656;57.746;11.780;2022-11-20T04:06:10;2.33;;;1.67;;
57826;SDS011;43656;57.746;11.780;2022-11-20T04:08:37;3.97;;;2.05;;
57826;SDS011;43656;57.746;11.780;2022-11-20T04:13:35;3.72;;;1.80;;
57826;SDS011;43656;57.746;11.780;2022-11-20T04:16:01;2.78;;;1.70;;
57826;SDS011;43656;57.746;11.780;2022-11-20T04:18:27;2.17;;;1.80;;
57826;SDS011;43656;57.746;11.780;2022-11-20T04:20:52;2.35;;;1.67;;
57826;SDS011;43656;57.746;11.780;2022-11-20T04:23:18;2.50;;;2.00;;
57826;SDS011;43656;57.746;11.780;2022-11-20T04:25:43;2.92;;;1.80;;
57826;SDS011;43656;57.746;11.780;2022-11-20T04:28:09;2.25;;;1.50;;
57826;SDS011;43656;57.746;11.780;2022-11-20T04:30:34;2.00;;;1.60;;
57826;SDS011;43656;57.746;11.780;2022-11-20T04:33:00;2.00;;;1.77;;
57826;SDS011;43656;57.746;11.780;2022-11-20T04:35:25;2.50;;;1.73;;
57826;SDS011;43656;57.746;11.780;2022-11-20T04:37:51;2.85;;;1.70;;
57826;SDS011;43656;57.746;11.780;2022-11-20T04:40:19;2.28;;;1.70;;
57826;SDS011;43656;57.746;11.780;2022-11-20T04:42:47;2.28;;;1.80;;
57826;SDS011;43656;57.746;11.780;2022-11-20T04:45:12;3.55;;;1.60;;
57826;SDS011;43656;57.746;11.780;2022-11-20T04:47:37;1.85;;;1.52;;
57826;SDS011;43656;57.746;11.780;2022-11-20T04:50:03;2.42;;;1.60;;
57826;SDS011;43656;57.746;11.780;2022-11-20T04:52:28;2.22;;;1.80;;
57826;SDS011;43656;57.746;11.780;2022-11-20T04:54:54;2.25;;;1.75;;
57826;SDS011;43656;57.746;11.780;2022-11-20T04:57:22;2.60;;;1.90;;
57826;SDS011;43656;57.746;11.780;2022-11-20T04:59:47;3.00;;;1.83;;
57826;SDS011;43656;57.746;11.780;2022-11-20T05:02:13;3.33;;;1.90;;
57826;SDS011;43656;57.746;11.780;2022-11-20T05:04:38;2.42;;;1.70;;
57826;SDS011;43656;57.746;11.780;2022-11-20T05:07:04;2.53;;;1.70;;
57826;SDS011;43656;57.746;11.780;2022-11-20T05:09:29;3.45;;;1.95;;
57826;SDS011;43656;57.746;11.780;2022-11-20T05:12:02;2.22;;;1.75;;
57826;SDS011;43656;57.746;11.780;2022-11-20T05:14:28;2.67;;;1.80;;
57826;SDS011;43656;57.746;11.780;2022-11-20T05:16:53;3.20;;;1.92;;
57826;SDS011;43656;57.746;11.780;2022-11-20T05:19:19;3.63;;;1.88;;
57826;SDS011;43656;57.746;11.780;2022-11-20T05:21:44;3.08;;;1.98;;
57826;SDS011;43656;57.746;11.780;2022-11-20T05:24:10;3.33;;;1.90;;
57826;SDS011;43656;57.746;11.780;2022-11-20T05:26:35;2.72;;;1.80;;
57826;SDS011;43656;57.746;11.780;2022-11-20T05:29:03;2.10;;;1.90;;
57826;SDS011;43656;57.746;11.780;2022-11-20T05:31:29;2.55;;;1.80;;
57826;SDS011;43656;57.746;11.780;2022-11-20T05:33:55;2.20;;;1.83;;
57826;SDS011;43656;57.746;11.780;2022-11-20T05:36:21;3.03;;;1.90;;
57826;SDS011;43656;57.746;11.780;2022-11-20T05:38:46;2.83;;;2.03;;
57826;SDS011;43656;57.746;11.780;2022-11-20T05:41:13;2.50;;;1.90;;
57826;SDS011;43656;57.746;11.780;2022-11-20T05:43:40;2.08;;;1.63;;
57826;SDS011;43656;57.746;11.780;2022-11-20T05:46:08;2.00;;;1.73;;
57826;SDS011;43656;57.746;11.780;2022-11-20T05:48:34;3.60;;;1.90;;
57826;SDS011;43656;57.746;11.780;2022-11-20T05:51:01;2.90;;;1.90;;
57826;SDS011;43656;57.746;11.780;2022-11-20T05:53:28;2.15;;;1.90;;
57826;SDS011;43656;57.746;11.780;2022-11-20T05:56:01;2.85;;;1.85;;
57826;SDS011;43656;57.746;11.780;2022-11-20T05:58:28;2.42;;;1.90;;
57826;SDS011;43656;57.746;11.780;2022-11-20T06:00:54;2.00;;;1.80;;
57826;SDS011;43656;57.746;11.780;2022-11-20T06:03:27;2.50;;;1.80;;
57826;SDS011;43656;57.746;11.780;2022-11-20T06:05:53;3.40;;;1.88;;
57826;SDS011;43656;57.746;11.780;2022-11-20T06:08:18;3.70;;;1.73;;
57826;SDS011;43656;57.746;11.780;2022-11-20T06:10:43;2.75;;;1.80;;
57826;SDS011;43656;57.746;11.780;2022-11-20T06:13:09;3.83;;;1.60;;
57826;SDS011;43656;57.746;11.780;2022-11-20T06:15:34;2.50;;;1.95;;
57826;SDS011;43656;57.746;11.780;2022-11-20T06:17:59;3.25;;;1.95;;
57826;SDS011;43656;57.746;11.780;2022-11-20T06:20:25;3.30;;;1.88;;
57826;SDS011;43656;57.746;11.780;2022-11-20T06:22:50;2.42;;;1.80;;
57826;SDS011;43656;57.746;11.780;2022-11-20T06:25:15;3.75;;;2.00;;
57826;SDS011;43656;57.746;11.780;2022-11-20T06:27:41;1.77;;;1.52;;
57826;SDS011;43656;57.746;11.780;2022-11-20T06:30:06;4.55;;;2.20;;
57826;SDS011;43656;57.746;11.780;2022-11-20T06:32:32;2.40;;;1.92;;
57826;SDS011;43656;57.746;11.780;2022-11-20T06:34:58;3.03;;;1.63;;
57826;SDS011;43656;57.746;11.780;2022-11-20T06:37:23;2.28;;;1.88;;
57826;SDS011;43656;57.746;11.780;2022-11-20T06:39:48;4.20;;;1.92;;
57826;SDS011;43656;57.746;11.780;2022-11-20T06:42:14;2.38;;;1.83;;
57826;SDS011;43656;57.746;11.780;2022-11-20T06:44:39;1.67;;;1.40;;
57826;SDS011;43656;57.746;11.780;2022-11-20T06:47:04;2.25;;;1.80;;
57826;SDS011;43656;57.746;11.780;2022-11-20T06:49:30;2.58;;;1.92;;
57826;SDS011;43656;57.746;11.780;2022-11-20T06:51:55;2.17;;;1.60;;
57826;SDS011;43656;57.746;11.780;2022-11-20T06:54:21;2.42;;;1.70;;
57826;SDS011;43656;57.746;11.780;2022-11-20T06:56:47;3.60;;;2.30;;
57826;SDS011;43656;57.746;11.780;2022-11-20T06:59:12;2.15;;;1.88;;
57826;SDS011;43656;57.746;11.780;2022-11-20T07:01:38;2.90;;;1.63;;
57826;SDS011;43656;57.746;11.780;2022-11-20T07:04:04;3.22;;;1.95;;
57826;SDS011;43656;57.746;11.780;2022-11-20T07:06:29;2.78;;;1.95;;
57826;SDS011;43656;57.746;11.780;2022-11-20T07:08:55;2.58;;;1.80;;
57826;SDS011;43656;57.746;11.780;2022-11-20T07:11:20;2.10;;;1.70;;
57826;SDS011;43656;57.746;11.780;2022-11-20T07:13:45;2.90;;;1.75;;
57826;SDS011;43656;57.746;11.780;2022-11-20T07:16:11;3.15;;;2.05;;
57826;SDS011;43656;57.746;11.780;2022-11-20T07:18:36;3.58;;;1.80;;
57826;SDS011;43656;57.746;11.780;2022-11-20T07:21:02;2.63;;;1.90;;
57826;SDS011;43656;57.746;11.780;2022-11-20T07:23:29;2.88;;;2.00;;
57826;SDS011;43656;57.746;11.780;2022-11-20T07:25:54;3.55;;;1.67;;
57826;SDS011;43656;57.746;11.780;2022-11-20T07:28:20;2.90;;;1.70;;
57826;SDS011;43656;57.746;11.780;2022-11-20T07:30:52;2.03;;;1.55;;
57826;SDS011;43656;57.746;11.780;2022-11-20T07:33:23;2.55;;;1.70;;
57826;SDS011;43656;57.746;11.780;2022-11-20T07:35:49;2.42;;;1.70;;
57826;SDS011;43656;57.746;11.780;2022-11-20T07:38:14;1.88;;;1.65;;
57826;SDS011;43656;57.746;11.780;2022-11-20T07:40:40;2.75;;;1.70;;
57826;SDS011;43656;57.746;11.780;2022-11-20T07:43:05;3.15;;;1.60;;
57826;SDS011;43656;57.746;11.780;2022-11-20T07:45:31;1.90;;;1.50;;
57826;SDS011;43656;57.746;11.780;2022-11-20T07:47:56;3.28;;;1.60;;
57826;SDS011;43656;57.746;11.780;2022-11-20T07:50:22;2.08;;;1.40;;
57826;SDS011;43656;57.746;11.780;2022-11-20T07:52:47;2.65;;;1.33;;
57826;SDS011;43656;57.746;11.780;2022-11-20T07:55:12;3.25;;;1.50;;
57826;SDS011;43656;57.746;11.780;2022-11-20T07:57:38;2.25;;;1.50;;
57826;SDS011;43656;57.746;11.780;2022-11-20T08:00:04;1.73;;;1.40;;
57826;SDS011;43656;57.746;11.780;2022-11-20T08:02:32;2.65;;;1.58;;
57826;SDS011;43656;57.746;11.780;2022-11-20T08:04:57;2.47;;;1.55;;
57826;SDS011;43656;57.746;11.780;2022-11-20T08:07:22;3.40;;;1.70;;
57826;SDS011;43656;57.746;11.780;2022-11-20T08:09:48;2.58;;;1.40;;
57826;SDS011;43656;57.746;11.780;2022-11-20T08:12:20;2.28;;;1.40;;
57826;SDS011;43656;57.746;11.780;2022-11-20T08:15:21;4.07;;;1.67;;
57826;SDS011;43656;57.746;11.780;2022-11-20T08:17:46;5.57;;;2.05;;
57826;SDS011;43656;57.746;11.780;2022-11-20T08:20:12;2.38;;;1.50;;
57826;SDS011;43656;57.746;11.780;2022-11-20T08:22:37;2.45;;;1.50;;
57826;SDS011;43656;57.746;11.780;2022-11-20T08:25:03;3.03;;;1.73;;
57826;SDS011;43656;57.746;11.780;2022-11-20T08:27:30;2.58;;;1.50;;
57826;SDS011;43656;57.746;11.780;2022-11-20T08:29:57;2.22;;;1.50;;
57826;SDS011;43656;57.746;11.780;2022-11-20T08:32:23;2.40;;;1.63;;
57826;SDS011;43656;57.746;11.780;2022-11-20T08:34:49;4.88;;;1.95;;
57826;SDS011;43656;57.746;11.780;2022-11-20T08:37:14;2.30;;;1.50;;
57826;SDS011;43656;57.746;11.780;2022-11-20T08:39:39;4.15;;;1.90;;
57826;SDS011;43656;57.746;11.780;2022-11-20T08:42:08;2.00;;;1.50;;
57826;SDS011;43656;57.746;11.780;2022-11-20T08:44:33;1.95;;;1.35;;
57826;SDS011;43656;57.746;11.780;2022-11-20T08:46:59;2.70;;;1.63;;
57826;SDS011;43656;57.746;11.780;2022-11-20T08:49:25;2.03;;;1.30;;
57826;SDS011;43656;57.746;11.780;2022-11-20T08:51:51;2.05;;;1.20;;
57826;SDS011;43656;57.746;11.780;2022-11-20T08:54:18;2.05;;;1.40;;
57826;SDS011;43656;57.746;11.780;2022-11-20T08:56:46;2.60;;;1.40;;
57826;SDS011;43656;57.746;11.780;2022-11-20T08:59:12;2.88;;;1.20;;
57826;SDS011;43656;57.746;11.780;2022-11-20T09:01:37;2.03;;;1.27;;
57826;SDS011;43656;57.746;11.780;2022-11-20T09:04:04;2.20;;;1.40;;
57826;SDS011;43656;57.746;11.780;2022-11-20T09:06:29;2.45;;;1.20;;
57826;SDS011;43656;57.746;11.780;2022-11-20T09:08:55;1.90;;;1.40;;
57826;SDS011;43656;57.746;11.780;2022-11-20T09:11:21;2.85;;;1.60;;
57826;SDS011;43656;57.746;11.780;2022-11-20T09:13:47;2.10;;;1.58;;
57826;SDS011;43656;57.746;11.780;2022-11-20T09:16:12;2.00;;;1.42;;
57826;SDS011;43656;57.746;11.780;2022-11-20T09:18:38;3.35;;;1.52;;
57826;SDS011;43656;57.746;11.780;2022-11-20T09:21:13;2.13;;;1.20;;
57826;SDS011;43656;57.746;11.780;2022-11-20T09:23:39;1.75;;;1.20;;
57826;SDS011;43656;57.746;11.780;2022-11-20T09:26:05;3.47;;;1.67;;
57826;SDS011;43656;57.746;11.780;2022-11-20T09:28:32;1.35;;;1.10;;
57826;SDS011;43656;57.746;11.780;2022-11-20T09:31:00;2.35;;;0.98;;
57826;SDS011;43656;57.746;11.780;2022-11-20T09:33:32;2.13;;;1.27;;
57826;SDS011;43656;57.746;11.780;2022-11-20T09:35:57;1.38;;;1.13;;
57826;SDS011;43656;57.746;11.780;2022-11-20T09:38:23;2.15;;;1.20;;
57826;SDS011;43656;57.746;11.780;2022-11-20T09:40:58;1.90;;;1.20;;
57826;SDS011;43656;57.746;11.780;2022-11-20T09:43:37;2.75;;;1.20;;
57826;SDS011;43656;57.746;11.780;2022-11-20T09:46:18;2.70;;;1.48;;
57826;SDS011;43656;57.746;11.780;2022-11-20T09:51:42;1.85;;;1.40;;
57826;SDS011;43656;57.746;11.780;2022-11-20T09:54:26;1.40;;;1.10;;
57826;SDS011;43656;57.746;11.780;2022-11-20T09:56:58;2.65;;;1.20;;
57826;SDS011;43656;57.746;11.780;2022-11-20T09:59:44;2.90;;;1.33;;
57826;SDS011;43656;57.746;11.780;2022-11-20T10:05:59;1.42;;;1.13;;
57826;SDS011;43656;57.746;11.780;2022-11-20T10:08:33;1.48;;;1.17;;
57826;SDS011;43656;57.746;11.780;2022-11-20T10:14:13;1.63;;;1.35;;
57826;SDS011;43656;57.746;11.780;2022-11-20T10:19:18;2.22;;;1.67;;
57826;SDS011;43656;57.746;11.780;2022-11-20T10:29:58;2.30;;;1.30;;
57826;SDS011;43656;57.746;11.780;2022-11-20T10:32:27;2.38;;;1.20;;
57826;SDS011;43656;57.746;11.780;2022-11-20T10:35:01;1.73;;;1.20;;
57826;SDS011;43656;57.746;11.780;2022-11-20T10:37:40;3.80;;;2.10;;
57826;SDS011;43656;57.746;11.780;2022-11-20T10:42:55;2.00;;;1.50;;
57826;SDS011;43656;57.746;11.780;2022-11-20T10:47:50;1.92;;;1.23;;
57826;SDS011;43656;57.746;11.780;2022-11-20T10:50:19;2.08;;;1.45;;
57826;SDS011;43656;57.746;11.780;2022-11-20T10:52:59;1.92;;;1.10;;
57826;SDS011;43656;57.746;11.780;2022-11-20T10:56:06;1.08;;;0.80;;
57826;SDS011;43656;57.746;11.780;2022-11-20T10:58:52;1.20;;;0.95;;
57826;SDS011;43656;57.746;11.780;2022-11-20T11:01:40;1.42;;;0.80;;
57826;SDS011;43656;57.746;11.780;2022-11-20T11:04:23;2.35;;;1.10;;
57826;SDS011;43656;57.746;11.780;2022-11-20T11:09:46;1.83;;;0.88;;
57826;SDS011;43656;57.746;11.780;2022-11-20T11:12:17;2.13;;;0.90;;
57826;SDS011;43656;57.746;11.780;2022-11-20T11:14:44;1.80;;;0.90;;
57826;SDS011;43656;57.746;11.780;2022-11-20T11:17:27;2.17;;;1.00;;
57826;SDS011;43656;57.746;11.780;2022-11-20T11:22:27;1.65;;;0.80;;
57826;SDS011;43656;57.746;11.780;2022-11-20T11:24:55;1.60;;;0.95;;
57826;SDS011;43656;57.746;11.780;2022-11-20T11:27:21;1.50;;;1.30;;
57826;SDS011;43656;57.746;11.780;2022-11-20T11:29:46;2.08;;;1.08;;
57826;SDS011;43656;57.746;11.780;2022-11-20T11:32:19;2.08;;;0.98;;
57826;SDS011;43656;57.746;11.780;2022-11-20T11:34:59;1.35;;;1.10;;
57826;SDS011;43656;57.746;11.780;2022-11-20T11:37:32;2.67;;;1.10;;
57826;SDS011;43656;57.746;11.780;2022-11-20T11:40:03;1.90;;;0.80;;
57826;SDS011;43656;57.746;11.780;2022-11-20T11:42:30;1.10;;;0.85;;
57826;SDS011;43656;57.746;11.780;2022-11-20T11:44:56;1.67;;;0.82;;
57826;SDS011;43656;57.746;11.780;2022-11-20T11:52:48;1.60;;;0.90;;
57826;SDS011;43656;57.746;11.780;2022-11-20T11:56:33;2.33;;;0.90;;
57826;SDS011;43656;57.746;11.780;2022-11-20T12:04:04;1.38;;;0.80;;
57826;SDS011;43656;57.746;11.780;2022-11-20T12:06:30;0.82;;;0.77;;
57826;SDS011;43656;57.746;11.780;2022-11-20T12:09:05;2.40;;;1.33;;
57826;SDS011;43656;57.746;11.780;2022-11-20T12:14:16;1.98;;;0.65;;
57826;SDS011;43656;57.746;11.780;2022-11-20T12:16:49;0.90;;;0.68;;
57826;SDS011;43656;57.746;11.780;2022-11-20T12:19:15;1.45;;;0.80;;
57826;SDS011;43656;57.746;11.780;2022-11-20T12:24:40;1.10;;;0.70;;
57826;SDS011;43656;57.746;11.780;2022-11-20T12:30:28;1.20;;;0.73;;
57826;SDS011;43656;57.746;11.780;2022-11-20T12:35:50;1.95;;;0.90;;
57826;SDS011;43656;57.746;11.780;2022-11-20T12:47:53;1.63;;;1.00;;
57826;SDS011;43656;57.746;11.780;2022-11-20T12:53:48;1.55;;;1.10;;
57826;SDS011;43656;57.746;11.780;2022-11-20T13:02:12;0.80;;;0.70;;
57826;SDS011;43656;57.746;11.780;2022-11-20T13:07:41;0.85;;;0.73;;
57826;SDS011;43656;57.746;11.780;2022-11-20T13:10:13;1.00;;;0.60;;
57826;SDS011;43656;57.746;11.780;2022-11-20T13:12:46;1.40;;;0.73;;
57826;SDS011;43656;57.746;11.780;2022-11-20T13:15:39;0.85;;;0.60;;
57826;SDS011;43656;57.746;11.780;2022-11-20T13:18:13;1.00;;;0.70;;
57826;SDS011;43656;57.746;11.780;2022-11-20T13:20:45;1.10;;;0.70;;
57826;SDS011;43656;57.746;11.780;2022-11-20T13:23:22;1.10;;;0.73;;
57826;SDS011;43656;57.746;11.780;2022-11-20T13:25:49;0.98;;;0.75;;
57826;SDS011;43656;57.746;11.780;2022-11-20T13:30:50;2.08;;;1.20;;
57826;SDS011;43656;57.746;11.780;2022-11-20T13:33:33;1.77;;;1.00;;
57826;SDS011;43656;57.746;11.780;2022-11-20T13:36:03;2.75;;;1.10;;
57826;SDS011;43656;57.746;11.780;2022-11-20T13:38:43;2.65;;;1.00;;
57826;SDS011;43656;57.746;11.780;2022-11-20T13:41:11;2.08;;;1.15;;
57826;SDS011;43656;57.746;11.780;2022-11-20T13:46:37;2.97;;;1.08;;
57826;SDS011;43656;57.746;11.780;2022-11-20T13:49:08;1.20;;;0.88;;
57826;SDS011;43656;57.746;11.780;2022-11-20T14:00:12;1.13;;;0.70;;
57826;SDS011;43656;57.746;11.780;2022-11-20T14:02:57;2.17;;;0.70;;
57826;SDS011;43656;57.746;11.780;2022-11-20T14:05:25;0.98;;;0.70;;
57826;SDS011;43656;57.746;11.780;2022-11-20T14:07:50;0.90;;;0.60;;
57826;SDS011;43656;57.746;11.780;2022-11-20T14:10:25;0.82;;;0.60;;
57826;SDS011;43656;57.746;11.780;2022-11-20T14:12:53;0.60;;;0.47;;
57826;SDS011;43656;57.746;11.780;2022-11-20T14:17:53;0.68;;;0.40;;
57826;SDS011;43656;57.746;11.780;2022-11-20T14:20:19;1.40;;;0.70;;
57826;SDS011;43656;57.746;11.780;2022-11-20T14:22:51;0.65;;;0.50;;
57826;SDS011;43656;57.746;11.780;2022-11-20T14:27:44;1.30;;;0.70;;
57826;SDS011;43656;57.746;11.780;2022-11-20T14:30:16;1.02;;;0.60;;
57826;SDS011;43656;57.746;11.780;2022-11-20T14:32:43;1.50;;;0.57;;
57826;SDS011;43656;57.746;11.780;2022-11-20T14:35:23;1.17;;;0.60;;
57826;SDS011;43656;57.746;11.780;2022-11-20T14:37:50;0.98;;;0.70;;
57826;SDS011;43656;57.746;11.780;2022-11-20T14:40:28;1.30;;;0.85;;
57826;SDS011;43656;57.746;11.780;2022-11-20T14:43:00;0.70;;;0.60;;
57826;SDS011;43656;57.746;11.780;2022-11-20T14:45:26;1.08;;;0.60;;
57826;SDS011;43656;57.746;11.780;2022-11-20T14:47:52;0.80;;;0.60;;
57826;SDS011;43656;57.746;11.780;2022-11-20T14:50:22;1.77;;;0.60;;
57826;SDS011;43656;57.746;11.780;2022-11-20T14:52:50;2.05;;;0.60;;
57826;SDS011;43656;57.746;11.780;2022-11-20T15:00:29;1.33;;;0.40;;
57826;SDS011;43656;57.746;11.780;2022-11-20T15:02:55;1.73;;;0.70;;
57826;SDS011;43656;57.746;11.780;2022-11-20T15:05:22;1.10;;;0.55;;
57826;SDS011;43656;57.746;11.780;2022-11-20T15:07:51;2.28;;;0.65;;
57826;SDS011;43656;57.746;11.780;2022-11-20T15:10:30;1.48;;;0.60;;
57826;SDS011;43656;57.746;11.780;2022-11-20T15:12:57;1.38;;;0.43;;
57826;SDS011;43656;57.746;11.780;2022-11-20T15:17:55;0.95;;;0.55;;
57826;SDS011;43656;57.746;11.780;2022-11-20T15:20:20;0.93;;;0.50;;
57826;SDS011;43656;57.746;11.780;2022-11-20T15:22:49;0.80;;;0.40;;
57826;SDS011;43656;57.746;11.780;2022-11-20T15:25:17;1.23;;;0.65;;
57826;SDS011;43656;57.746;11.780;2022-11-20T15:27:43;0.95;;;0.55;;
57826;SDS011;43656;57.746;11.780;2022-11-20T15:30:17;1.00;;;0.60;;
57826;SDS011;43656;57.746;11.780;2022-11-20T15:32:44;1.25;;;0.75;;
57826;SDS011;43656;57.746;11.780;2022-11-20T15:35:11;1.70;;;0.98;;
57826;SDS011;43656;57.746;11.780;2022-11-20T15:37:37;1.88;;;0.77;;
57826;SDS011;43656;57.746;11.780;2022-11-20T15:40:03;2.60;;;0.80;;
57826;SDS011;43656;57.746;11.780;2022-11-20T15:42:30;1.30;;;0.60;;
57826;SDS011;43656;57.746;11.780;2022-11-20T15:44:55;1.05;;;0.52;;
57826;SDS011;43656;57.746;11.780;2022-11-20T15:47:21;1.17;;;0.70;;
57826;SDS011;43656;57.746;11.780;2022-11-20T15:49:57;1.55;;;0.73;;
57826;SDS011;43656;57.746;11.780;2022-11-20T15:52:22;1.73;;;0.77;;
57826;SDS011;43656;57.746;11.780;2022-11-20T15:54:51;1.10;;;0.70;;
57826;SDS011;43656;57.746;11.780;2022-11-20T15:57:16;1.35;;;0.90;;
57826;SDS011;43656;57.746;11.780;2022-11-20T15:59:42;1.77;;;0.75;;
57826;SDS011;43656;57.746;11.780;2022-11-20T16:02:10;1.33;;;0.80;;
57826;SDS011;43656;57.746;11.780;2022-11-20T16:04:37;1.65;;;0.82;;
57826;SDS011;43656;57.746;11.780;2022-11-20T16:07:03;2.25;;;0.80;;
57826;SDS011;43656;57.746;11.780;2022-11-20T16:09:28;1.88;;;1.05;;
57826;SDS011;43656;57.746;11.780;2022-11-20T16:11:53;1.75;;;0.88;;
57826;SDS011;43656;57.746;11.780;2022-11-20T16:14:19;2.03;;;0.80;;
57826;SDS011;43656;57.746;11.780;2022-11-20T16:17:03;2.63;;;1.00;;
57826;SDS011;43656;57.746;11.780;2022-11-20T16:19:28;2.58;;;1.15;;
57826;SDS011;43656;57.746;11.780;2022-11-20T16:21:54;3.67;;;1.27;;
57826;SDS011;43656;57.746;11.780;2022-11-20T16:24:19;3.00;;;1.30;;
57826;SDS011;43656;57.746;11.780;2022-11-20T16:26:45;2.88;;;1.27;;
57826;SDS011;43656;57.746;11.780;2022-11-20T16:29:10;2.17;;;1.02;;
57826;SDS011;43656;57.746;11.780;2022-11-20T16:31:36;2.50;;;1.20;;
57826;SDS011;43656;57.746;11.780;2022-11-20T16:34:03;3.35;;;0.90;;
57826;SDS011;43656;57.746;11.780;2022-11-20T16:36:31;2.33;;;1.00;;
57826;SDS011;43656;57.746;11.780;2022-11-20T16:38:58;2.33;;;1.17;;